Airport View

Enter AWOS ICAO identifier for current METAR.

ex. KFNL

KDLL 251605Z AUTO 03005KT 10SM SCT055 OVC090 00/M06 A3029 RMK AO2 T10051058

25 Oct 2020 16:04

Frequency: 118.325

Phone: 608-356-1071

Other Area AWOS: KC35 - K82C - KLNR - KC29

TAF AMD KMSN 251523Z 2515/2612 02008KT P6SM SCT050 BKN100 FM252100 02007KT P6SM VCSH OVC029 FM260200 VRB04KT P6SM -SN BKN013 FM260600 35005KT P6SM BKN008